Terminal Aerodrome Forecast
Issued by NWS North Platte, NE

Home | Current Version | Previous Version | Text Only | Print | Product List | Glossary On
Versions: 1 2 3 4 5 6 7 8 9 10 11 12 13 14 15 16
000
FTUS43 KLBF 270700 AAB
TAFLBF
TAF AMD
KLBF 270724Z 2707/2806 12010KT 3SM +TSRA OVC009CB
      TEMPO 2707/2709 1SM +TSRA BKN018CB
     FM271000 12010KT 3SM SHRA BKN016
     FM271600 16011KT P6SM OVC018
     FM272100 VRB22G32KT 2SM +TSRA BKN015CB
     FM280100 11009KT P6SM BKN025=

USA.gov is the U.S. government's official web portal to all federal, state and local government web resources and services.